リヴァプール の空港の天気 - METARとTAF

リバプール・ジョン・レノン空港 ( EGGP / LPL ) - イギリス リヴァプール
飛行場実況気象(Metar)
観測時間02/27 13:20 GMT (02/27 13:20 UTC)
風向・風速西北西 10m/s
視程10km以上
天気現象周辺でしゅう雨
少しの雲 雲底高度 550m
全天の4割程度の雲 雲底高度 1160m
気温7℃
湿度66%
気圧1004hPa
METAREGGP 271320Z 30019KT 9999 VCSH FEW018 SCT038 07/01 Q1004
過去の天気等 Google飛行場航空写真 Wunderground天気予報

過去48時間のMETAR

飛行場予報(TAF)
発表時間: 2/27 10:57 GMT (2/27 10:57 UTC)
予報対象時間: 27日12時 GMT ~ 28日12時 GMT
風向・風速西北西 6m/s
視程10km以上
少しの雲 雲底高度 460m
全天の4割程度の雲 雲底高度 910m
27日12時 GMT ~ 27日20時 GMT に一時的に
風向・風速北西 9m/s 瞬間風速 14m/s
27日12時 GMT ~ 27日18時 GMT に 確率 30% で一時的に
視程6000m
天気現象しゅう雨
27日18時 GMT ~ 27日21時 GMT に徐々に
風向・風速南西 4m/s
28日6時 GMT ~ 28日9時 GMT に徐々に
風向・風速南南東 8m/s
28日8時 GMT ~ 28日12時 GMT に一時的に
風向・風速南南東 9m/s 瞬間風速 14m/s
視程8000m
天気現象弱い雨
全天の8割程度の雲 雲底高度 370m
28日8時 GMT ~ 28日12時 GMT に 確率 40% で一時的に
視程4000m
天気現象雨霧雨
全天の8割程度の雲 雲底高度 240m
TAF EGGP 271057Z 2712/2812 29012KT 9999 FEW015 SCT030
TEMPO 2712/2720 31017G27KT
PROB30 TEMPO 2712/2718 6000 SHRA
BECMG 2718/2721 22008KT
BECMG 2806/2809 15015KT
TEMPO 2808/2812 16018G28KT 8000 -RA BKN012
PROB40 TEMPO 2808/2812 4000 RADZ BKN008